Durand, Wisconsin
Current Conditions -  °F | °C
As of 3:35 PM on Saturday 22 Nov 2014 (Local Time) from KLUM Reporting Station
Haze Haze  
Wind Chill: 33°   Ceiling: 600
Heat Index: 37°   Visibility: 3mi
Dew Point: 35°   Wind: 5mph
Humidity: 94%   Direction: 200°SSW
Pressure: 29.71"   Gusts: NA
Location:  44.63°N, 91.97°W
Report Text: KLUM 222135Z AUTO 20004KT 3SM BR OVC006 03/02 A2971 RMK AO2 T00250016
Loading
Personal Weather Stations






























Interactive Weather Map New forecast layout! Learn more

10-Day Weather Forecast

Advertisements
Track Severe Weather on mobile